sensor_id;sensor_type;location;lat;lon;timestamp;pressure;altitude;pressure_sealevel;temperature;humidity
21236;BME280;10775;42.678;26.324;2022-12-24T00:02:17;98550.97;;;4.91;100.00
21236;BME280;10775;42.678;26.324;2022-12-24T00:04:43;98544.09;;;4.87;100.00
21236;BME280;10775;42.678;26.324;2022-12-24T00:07:09;98541.47;;;4.70;100.00
21236;BME280;10775;42.678;26.324;2022-12-24T00:09:34;98538.03;;;4.80;100.00
21236;BME280;10775;42.678;26.324;2022-12-24T00:12:00;98544.94;;;4.87;100.00
21236;BME280;10775;42.678;26.324;2022-12-24T00:14:26;98539.72;;;4.67;100.00
21236;BME280;10775;42.678;26.324;2022-12-24T00:16:51;98539.72;;;4.78;100.00
21236;BME280;10775;42.678;26.324;2022-12-24T00:19:17;98545.81;;;4.78;100.00
21236;BME280;10775;42.678;26.324;2022-12-24T00:21:42;98538.00;;;4.75;100.00
21236;BME280;10775;42.678;26.324;2022-12-24T00:24:09;98538.88;;;4.80;100.00
21236;BME280;10775;42.678;26.324;2022-12-24T00:26:37;98535.44;;;4.88;100.00
21236;BME280;10775;42.678;26.324;2022-12-24T00:29:05;98542.34;;;5.01;100.00
21236;BME280;10775;42.678;26.324;2022-12-24T00:31:33;98535.44;;;5.05;100.00
21236;BME280;10775;42.678;26.324;2022-12-24T00:34:00;98537.16;;;4.95;100.00
21236;BME280;10775;42.678;26.324;2022-12-24T00:36:26;98542.34;;;4.92;100.00
21236;BME280;10775;42.678;26.324;2022-12-24T00:38:52;98535.44;;;4.97;100.00
21236;BME280;10775;42.678;26.324;2022-12-24T00:41:17;98542.34;;;5.10;100.00
21236;BME280;10775;42.678;26.324;2022-12-24T00:46:20;98536.31;;;5.17;100.00
21236;BME280;10775;42.678;26.324;2022-12-24T00:48:50;98545.78;;;5.18;100.00
21236;BME280;10775;42.678;26.324;2022-12-24T00:51:16;98533.69;;;5.19;100.00
21236;BME280;10775;42.678;26.324;2022-12-24T00:53:41;98544.09;;;5.27;100.00
21236;BME280;10775;42.678;26.324;2022-12-24T00:56:08;98543.19;;;5.26;100.00
21236;BME280;10775;42.678;26.324;2022-12-24T00:58:34;98532.84;;;5.29;100.00
21236;BME280;10775;42.678;26.324;2022-12-24T01:01:02;98531.97;;;5.16;100.00
21236;BME280;10775;42.678;26.324;2022-12-24T01:03:28;98542.34;;;5.07;100.00
21236;BME280;10775;42.678;26.324;2022-12-24T01:06:09;98530.28;;;5.09;100.00
21236;BME280;10775;42.678;26.324;2022-12-24T01:08:37;98536.28;;;5.16;100.00
21236;BME280;10775;42.678;26.324;2022-12-24T01:11:04;98540.63;;;5.25;100.00
21236;BME280;10775;42.678;26.324;2022-12-24T01:13:30;98533.72;;;5.30;100.00
21236;BME280;10775;42.678;26.324;2022-12-24T01:15:56;98523.34;;;5.27;100.00
21236;BME280;10775;42.678;26.324;2022-12-24T01:18:43;98526.81;;;5.22;100.00
21236;BME280;10775;42.678;26.324;2022-12-24T01:21:09;98520.75;;;5.22;100.00
21236;BME280;10775;42.678;26.324;2022-12-24T01:23:34;98522.47;;;5.25;100.00
21236;BME280;10775;42.678;26.324;2022-12-24T01:26:03;98525.06;;;5.28;100.00
21236;BME280;10775;42.678;26.324;2022-12-24T01:28:29;98520.75;;;5.28;100.00
21236;BME280;10775;42.678;26.324;2022-12-24T01:30:55;98518.19;;;5.14;100.00
21236;BME280;10775;42.678;26.324;2022-12-24T01:33:21;98516.41;;;5.16;100.00
21236;BME280;10775;42.678;26.324;2022-12-24T01:35:46;98521.59;;;5.21;100.00
21236;BME280;10775;42.678;26.324;2022-12-24T01:38:12;98512.97;;;5.17;100.00
21236;BME280;10775;42.678;26.324;2022-12-24T01:40:39;98516.44;;;5.22;100.00
21236;BME280;10775;42.678;26.324;2022-12-24T01:43:25;98524.22;;;5.24;100.00
21236;BME280;10775;42.678;26.324;2022-12-24T01:46:31;98516.41;;;5.16;100.00
21236;BME280;10775;42.678;26.324;2022-12-24T01:49:01;98513.84;;;4.99;100.00
21236;BME280;10775;42.678;26.324;2022-12-24T01:51:35;98509.50;;;4.75;100.00
21236;BME280;10775;42.678;26.324;2022-12-24T01:54:12;98507.78;;;4.59;100.00
21236;BME280;10775;42.678;26.324;2022-12-24T01:56:44;98504.31;;;4.60;100.00
21236;BME280;10775;42.678;26.324;2022-12-24T01:59:14;98504.34;;;4.65;100.00
21236;BME280;10775;42.678;26.324;2022-12-24T02:01:40;98512.09;;;4.68;100.00
21236;BME280;10775;42.678;26.324;2022-12-24T02:07:32;98518.16;;;4.80;100.00
21236;BME280;10775;42.678;26.324;2022-12-24T02:09:59;98514.69;;;4.91;100.00
21236;BME280;10775;42.678;26.324;2022-12-24T02:12:31;98507.81;;;4.87;100.00
21236;BME280;10775;42.678;26.324;2022-12-24T02:14:58;98509.53;;;4.85;100.00
21236;BME280;10775;42.678;26.324;2022-12-24T02:17:46;98506.94;;;4.85;100.00
21236;BME280;10775;42.678;26.324;2022-12-24T02:20:57;98503.50;;;4.84;100.00
21236;BME280;10775;42.678;26.324;2022-12-24T02:32:14;98501.75;;;4.69;100.00
21236;BME280;10775;42.678;26.324;2022-12-24T02:35:09;98512.97;;;4.53;100.00
21236;BME280;10775;42.678;26.324;2022-12-24T02:38:07;98516.41;;;4.43;100.00
21236;BME280;10775;42.678;26.324;2022-12-24T02:40:37;98515.56;;;4.56;100.00
21236;BME280;10775;42.678;26.324;2022-12-24T02:43:25;98506.94;;;4.58;100.00
21236;BME280;10775;42.678;26.324;2022-12-24T02:46:13;98514.69;;;4.57;100.00
21236;BME280;10775;42.678;26.324;2022-12-24T02:48:41;98516.41;;;4.52;100.00
21236;BME280;10775;42.678;26.324;2022-12-24T02:51:27;98521.59;;;4.46;100.00
21236;BME280;10775;42.678;26.324;2022-12-24T02:53:53;98512.94;;;4.47;100.00
21236;BME280;10775;42.678;26.324;2022-12-24T02:59:33;98516.38;;;4.27;100.00
21236;BME280;10775;42.678;26.324;2022-12-24T03:04:57;98519.69;;;3.86;100.00
21236;BME280;10775;42.678;26.324;2022-12-24T03:12:53;98529.88;;;3.56;100.00
21236;BME280;10775;42.678;26.324;2022-12-24T03:15:23;98531.66;;;3.66;100.00
21236;BME280;10775;42.678;26.324;2022-12-24T03:17:52;98529.13;;;3.83;100.00
21236;BME280;10775;42.678;26.324;2022-12-24T03:20:25;98535.25;;;4.03;100.00
21236;BME280;10775;42.678;26.324;2022-12-24T03:22:51;98529.25;;;4.17;100.00
21236;BME280;10775;42.678;26.324;2022-12-24T03:25:17;98525.84;;;4.22;100.00
21236;BME280;10775;42.678;26.324;2022-12-24T03:27:44;98526.69;;;4.23;100.00
21236;BME280;10775;42.678;26.324;2022-12-24T03:30:13;98531.91;;;4.30;100.00
21236;BME280;10775;42.678;26.324;2022-12-24T03:32:39;98539.66;;;4.33;100.00
21236;BME280;10775;42.678;26.324;2022-12-24T03:35:06;98538.78;;;4.34;100.00
21236;BME280;10775;42.678;26.324;2022-12-24T03:37:31;98530.19;;;4.32;100.00
21236;BME280;10775;42.678;26.324;2022-12-24T03:39:58;98535.38;;;4.32;100.00
21236;BME280;10775;42.678;26.324;2022-12-24T03:42:24;98537.91;;;4.26;100.00
21236;BME280;10775;42.678;26.324;2022-12-24T03:44:50;98527.50;;;4.11;100.00
21236;BME280;10775;42.678;26.324;2022-12-24T03:47:15;98535.28;;;4.09;100.00
21236;BME280;10775;42.678;26.324;2022-12-24T03:49:41;98534.38;;;4.01;100.00
21236;BME280;10775;42.678;26.324;2022-12-24T03:52:06;98533.53;;;4.05;100.00
21236;BME280;10775;42.678;26.324;2022-12-24T03:54:33;98530.09;;;4.05;100.00
21236;BME280;10775;42.678;26.324;2022-12-24T03:56:58;98545.50;;;3.83;100.00
21236;BME280;10775;42.678;26.324;2022-12-24T03:59:24;98537.75;;;3.83;100.00
21236;BME280;10775;42.678;26.324;2022-12-24T04:01:52;98530.88;;;3.88;100.00
21236;BME280;10775;42.678;26.324;2022-12-24T04:04:18;98536.06;;;3.90;100.00
21236;BME280;10775;42.678;26.324;2022-12-24T04:06:44;98534.34;;;3.90;100.00
21236;BME280;10775;42.678;26.324;2022-12-24T04:09:10;98535.19;;;3.89;100.00
21236;BME280;10775;42.678;26.324;2022-12-24T04:11:36;98529.13;;;3.86;100.00
21236;BME280;10775;42.678;26.324;2022-12-24T04:14:01;98536.91;;;3.84;100.00
21236;BME280;10775;42.678;26.324;2022-12-24T04:16:27;98533.44;;;3.85;100.00
21236;BME280;10775;42.678;26.324;2022-12-24T04:18:52;98532.63;;;3.92;100.00
21236;BME280;10775;42.678;26.324;2022-12-24T04:21:19;98529.16;;;3.90;100.00
21236;BME280;10775;42.678;26.324;2022-12-24T04:23:44;98534.34;;;3.93;100.00
21236;BME280;10775;42.678;26.324;2022-12-24T04:26:12;98536.06;;;3.96;100.00
21236;BME280;10775;42.678;26.324;2022-12-24T04:28:38;98535.19;;;3.86;100.00
21236;BME280;10775;42.678;26.324;2022-12-24T04:31:07;98537.78;;;3.88;100.00
21236;BME280;10775;42.678;26.324;2022-12-24T04:33:34;98536.03;;;3.85;100.00
21236;BME280;10775;42.678;26.324;2022-12-24T04:36:01;98538.53;;;3.67;100.00
21236;BME280;10775;42.678;26.324;2022-12-24T04:38:28;98540.19;;;3.57;100.00
21236;BME280;10775;42.678;26.324;2022-12-24T04:41:09;98544.53;;;3.63;100.00
21236;BME280;10775;42.678;26.324;2022-12-24T04:43:38;98548.88;;;3.67;100.00
21236;BME280;10775;42.678;26.324;2022-12-24T04:46:06;98545.41;;;3.65;100.00
21236;BME280;10775;42.678;26.324;2022-12-24T04:48:32;98547.16;;;3.67;100.00
21236;BME280;10775;42.678;26.324;2022-12-24T04:51:04;98544.38;;;3.40;100.00
21236;BME280;10775;42.678;26.324;2022-12-24T04:53:31;98548.75;;;3.47;100.00
21236;BME280;10775;42.678;26.324;2022-12-24T04:55:57;98543.63;;;3.52;100.00
21236;BME280;10775;42.678;26.324;2022-12-24T04:58:23;98554.03;;;3.64;100.00
21236;BME280;10775;42.678;26.324;2022-12-24T05:00:52;98543.69;;;3.61;100.00
21236;BME280;10775;42.678;26.324;2022-12-24T05:03:22;98539.34;;;3.58;100.00
21236;BME280;10775;42.678;26.324;2022-12-24T05:05:48;98547.97;;;3.57;100.00
21236;BME280;10775;42.678;26.324;2022-12-24T05:08:13;98541.09;;;3.64;100.00
21236;BME280;10775;42.678;26.324;2022-12-24T05:10:39;98544.59;;;3.72;100.00
21236;BME280;10775;42.678;26.324;2022-12-24T05:13:05;98536.75;;;3.60;100.00
21236;BME280;10775;42.678;26.324;2022-12-24T05:15:30;98536.66;;;3.41;100.00
21236;BME280;10775;42.678;26.324;2022-12-24T05:17:56;98539.25;;;3.41;100.00
21236;BME280;10775;42.678;26.324;2022-12-24T05:20:22;98537.56;;;3.48;100.00
21236;BME280;10775;42.678;26.324;2022-12-24T05:22:48;98535.88;;;3.53;100.00
21236;BME280;10775;42.678;26.324;2022-12-24T05:25:39;98535.88;;;3.55;100.00
21236;BME280;10775;42.678;26.324;2022-12-24T05:28:23;98537.63;;;3.56;100.00
21236;BME280;10775;42.678;26.324;2022-12-24T05:30:49;98544.53;;;3.61;100.00
21236;BME280;10775;42.678;26.324;2022-12-24T05:33:15;98545.38;;;3.59;100.00
21236;BME280;10775;42.678;26.324;2022-12-24T05:35:40;98541.88;;;3.46;100.00
21236;BME280;10775;42.678;26.324;2022-12-24T05:38:07;98540.16;;;3.49;100.00
21236;BME280;10775;42.678;26.324;2022-12-24T05:40:33;98547.03;;;3.47;100.00
21236;BME280;10775;42.678;26.324;2022-12-24T05:42:58;98543.56;;;3.42;100.00
21236;BME280;10775;42.678;26.324;2022-12-24T05:45:24;98542.66;;;3.36;100.00
21236;BME280;10775;42.678;26.324;2022-12-24T05:48:00;98552.16;;;3.38;100.00
21236;BME280;10775;42.678;26.324;2022-12-24T05:50:28;98554.72;;;3.40;100.00
21236;BME280;10775;42.678;26.324;2022-12-24T05:52:54;98553.97;;;3.55;100.00
21236;BME280;10775;42.678;26.324;2022-12-24T05:55:19;98553.97;;;3.53;100.00
21236;BME280;10775;42.678;26.324;2022-12-24T05:57:45;98551.38;;;3.52;100.00
21236;BME280;10775;42.678;26.324;2022-12-24T06:00:11;98553.09;;;3.53;100.00
21236;BME280;10775;42.678;26.324;2022-12-24T06:02:37;98558.31;;;3.59;100.00
21236;BME280;10775;42.678;26.324;2022-12-24T06:05:03;98564.38;;;3.64;100.00
21236;BME280;10775;42.678;26.324;2022-12-24T06:07:30;98569.53;;;3.61;100.00
21236;BME280;10775;42.678;26.324;2022-12-24T06:09:56;98572.03;;;3.50;100.00
21236;BME280;10775;42.678;26.324;2022-12-24T06:12:21;98576.34;;;3.49;100.00
21236;BME280;10775;42.678;26.324;2022-12-24T06:14:47;98576.28;;;3.42;100.00
21236;BME280;10775;42.678;26.324;2022-12-24T06:17:13;98573.56;;;3.23;100.00
21236;BME280;10775;42.678;26.324;2022-12-24T06:19:38;98577.16;;;3.44;100.00
21236;BME280;10775;42.678;26.324;2022-12-24T06:22:04;98578.13;;;3.57;100.00
21236;BME280;10775;42.678;26.324;2022-12-24T06:24:29;98579.72;;;3.39;100.00
21236;BME280;10775;42.678;26.324;2022-12-24T06:26:55;98578.94;;;3.53;100.00
21236;BME280;10775;42.678;26.324;2022-12-24T06:29:22;98576.34;;;3.49;100.00
21236;BME280;10775;42.678;26.324;2022-12-24T06:31:47;98569.53;;;3.61;100.00
21236;BME280;10775;42.678;26.324;2022-12-24T06:34:13;98576.50;;;3.74;100.00
21236;BME280;10775;42.678;26.324;2022-12-24T06:36:40;98584.28;;;3.80;100.00
21236;BME280;10775;42.678;26.324;2022-12-24T06:39:06;98581.72;;;3.83;100.00
21236;BME280;10775;42.678;26.324;2022-12-24T06:41:31;98573.09;;;3.81;100.00
21236;BME280;10775;42.678;26.324;2022-12-24T06:43:57;98571.41;;;3.91;100.00
21236;BME280;10775;42.678;26.324;2022-12-24T06:46:22;98578.34;;;4.01;100.00
21236;BME280;10775;42.678;26.324;2022-12-24T06:48:48;98587.91;;;4.13;100.00
21236;BME280;10775;42.678;26.324;2022-12-24T06:51:15;98593.97;;;4.18;100.00
21236;BME280;10775;42.678;26.324;2022-12-24T06:53:47;98587.94;;;4.21;100.00
21236;BME280;10775;42.678;26.324;2022-12-24T06:56:15;98587.09;;;4.26;100.00
21236;BME280;10775;42.678;26.324;2022-12-24T06:58:41;98586.22;;;4.23;100.00
21236;BME280;10775;42.678;26.324;2022-12-24T07:01:09;98595.75;;;4.31;100.00
21236;BME280;10775;42.678;26.324;2022-12-24T07:03:35;98594.03;;;4.35;100.00
21236;BME280;10775;42.678;26.324;2022-12-24T07:06:06;98587.13;;;4.42;100.00
21236;BME280;10775;42.678;26.324;2022-12-24T07:08:32;98569.91;;;4.41;100.00
21236;BME280;10775;42.678;26.324;2022-12-24T07:11:00;98582.00;;;4.48;100.00
21236;BME280;10775;42.678;26.324;2022-12-24T07:13:26;98575.94;;;4.52;100.00
21236;BME280;10775;42.678;26.324;2022-12-24T07:16:02;98571.66;;;4.54;100.00
21236;BME280;10775;42.678;26.324;2022-12-24T07:18:28;98573.41;;;4.61;100.00
21236;BME280;10775;42.678;26.324;2022-12-24T07:20:55;98567.38;;;4.61;100.00
21236;BME280;10775;42.678;26.324;2022-12-24T07:23:22;98578.56;;;4.61;100.00
21236;BME280;10775;42.678;26.324;2022-12-24T07:25:47;98582.03;;;4.66;100.00
21236;BME280;10775;42.678;26.324;2022-12-24T07:28:13;98580.28;;;4.65;100.00
21236;BME280;10775;42.678;26.324;2022-12-24T07:30:39;98574.25;;;4.62;100.00
21236;BME280;10775;42.678;26.324;2022-12-24T07:33:06;98582.03;;;4.66;100.00
21236;BME280;10775;42.678;26.324;2022-12-24T07:35:33;98582.91;;;4.71;100.00
21236;BME280;10775;42.678;26.324;2022-12-24T07:38:01;98574.31;;;4.78;100.00
21236;BME280;10775;42.678;26.324;2022-12-24T07:40:26;98580.31;;;4.74;100.00
21236;BME280;10775;42.678;26.324;2022-12-24T07:42:52;98581.19;;;4.75;100.00
21236;BME280;10775;42.678;26.324;2022-12-24T07:45:17;98594.16;;;4.79;100.00
21236;BME280;10775;42.678;26.324;2022-12-24T07:47:43;98593.31;;;4.90;100.00
21236;BME280;10775;42.678;26.324;2022-12-24T07:50:09;98592.47;;;5.01;100.00
21236;BME280;10775;42.678;26.324;2022-12-24T07:52:34;98593.31;;;5.13;100.00
21236;BME280;10775;42.678;26.324;2022-12-24T07:55:00;98598.50;;;5.23;100.00
21236;BME280;10775;42.678;26.324;2022-12-24T07:57:26;98596.78;;;5.30;100.00
21236;BME280;10775;42.678;26.324;2022-12-24T07:59:51;98604.56;;;5.35;100.00
21236;BME280;10775;42.678;26.324;2022-12-24T08:02:17;98608.03;;;5.44;100.00
21236;BME280;10775;42.678;26.324;2022-12-24T08:04:42;98608.88;;;5.63;100.00
21236;BME280;10775;42.678;26.324;2022-12-24T08:07:08;98605.34;;;5.89;100.00
21236;BME280;10775;42.678;26.324;2022-12-24T08:09:34;98592.22;;;6.41;100.00
21236;BME280;10775;42.678;26.324;2022-12-24T08:12:01;98590.19;;;6.94;100.00
21236;BME280;10775;42.678;26.324;2022-12-24T08:14:28;98597.94;;;7.03;100.00
21236;BME280;10775;42.678;26.324;2022-12-24T08:16:54;98589.25;;;7.04;100.00
21236;BME280;10775;42.678;26.324;2022-12-24T08:19:20;98594.91;;;7.57;100.00
21236;BME280;10775;42.678;26.324;2022-12-24T08:21:45;98597.59;;;8.28;98.39
21236;BME280;10775;42.678;26.324;2022-12-24T08:24:11;98595.31;;;8.73;94.90
21236;BME280;10775;42.678;26.324;2022-12-24T08:26:37;98587.16;;;8.98;92.62
21236;BME280;10775;42.678;26.324;2022-12-24T08:29:03;98590.00;;;8.79;90.10
21236;BME280;10775;42.678;26.324;2022-12-24T08:31:29;98592.28;;;8.39;91.79
21236;BME280;10775;42.678;26.324;2022-12-24T08:33:55;98590.50;;;8.44;94.29
21236;BME280;10775;42.678;26.324;2022-12-24T08:36:21;98588.13;;;8.90;90.76
21236;BME280;10775;42.678;26.324;2022-12-24T08:38:46;98577.53;;;8.39;91.03
21236;BME280;10775;42.678;26.324;2022-12-24T08:41:12;98578.72;;;8.79;93.11
21236;BME280;10775;42.678;26.324;2022-12-24T08:43:38;98582.28;;;8.75;91.35
21236;BME280;10775;42.678;26.324;2022-12-24T08:46:04;98585.53;;;8.90;93.49
21236;BME280;10775;42.678;26.324;2022-12-24T08:48:31;98580.41;;;8.83;92.92
21236;BME280;10775;42.678;26.324;2022-12-24T08:50:57;98577.13;;;8.68;93.74
21236;BME280;10775;42.678;26.324;2022-12-24T08:53:23;98578.69;;;8.82;94.66
21236;BME280;10775;42.678;26.324;2022-12-24T08:55:48;98577.59;;;8.97;96.94
21236;BME280;10775;42.678;26.324;2022-12-24T08:58:14;98576.72;;;9.50;94.24
21236;BME280;10775;42.678;26.324;2022-12-24T09:00:40;98573.31;;;9.47;94.13
21236;BME280;10775;42.678;26.324;2022-12-24T09:03:05;98570.06;;;9.34;93.24
21236;BME280;10775;42.678;26.324;2022-12-24T09:05:33;98564.06;;;9.27;90.26
21236;BME280;10775;42.678;26.324;2022-12-24T09:08:03;98562.75;;;9.54;94.21
21236;BME280;10775;42.678;26.324;2022-12-24T09:10:29;98553.81;;;9.68;94.25
21236;BME280;10775;42.678;26.324;2022-12-24T09:12:58;98555.00;;;9.98;92.68
21236;BME280;10775;42.678;26.324;2022-12-24T09:15:23;98554.22;;;9.91;92.35
21236;BME280;10775;42.678;26.324;2022-12-24T09:17:49;98557.75;;;9.89;90.54
21236;BME280;10775;42.678;26.324;2022-12-24T09:20:15;98560.09;;;9.56;92.18
21236;BME280;10775;42.678;26.324;2022-12-24T09:22:40;98571.84;;;9.30;93.99
21236;BME280;10775;42.678;26.324;2022-12-24T09:25:06;98561.00;;;9.02;95.66
21236;BME280;10775;42.678;26.324;2022-12-24T09:27:34;98562.97;;;8.88;97.71
21236;BME280;10775;42.678;26.324;2022-12-24T09:30:00;98561.53;;;9.23;99.80
21236;BME280;10775;42.678;26.324;2022-12-24T09:32:25;98570.38;;;9.67;94.85
21236;BME280;10775;42.678;26.324;2022-12-24T09:34:51;98567.47;;;9.82;91.95
21236;BME280;10775;42.678;26.324;2022-12-24T09:37:17;98575.72;;;10.06;93.55
21236;BME280;10775;42.678;26.324;2022-12-24T09:39:42;98570.13;;;10.24;93.85
21236;BME280;10775;42.678;26.324;2022-12-24T09:45:17;98556.59;;;10.49;92.06
21236;BME280;10775;42.678;26.324;2022-12-24T09:47:53;98551.75;;;10.30;89.50
21236;BME280;10775;42.678;26.324;2022-12-24T09:53:12;98557.09;;;10.22;93.46
21236;BME280;10775;42.678;26.324;2022-12-24T09:55:45;98551.69;;;10.74;93.78
21236;BME280;10775;42.678;26.324;2022-12-24T09:58:21;98565.13;;;10.57;90.58
21236;BME280;10775;42.678;26.324;2022-12-24T10:00:48;98554.31;;;10.33;94.35
21236;BME280;10775;42.678;26.324;2022-12-24T10:03:15;98559.13;;;10.08;92.24
21236;BME280;10775;42.678;26.324;2022-12-24T10:20:26;98572.13;;;10.13;97.84
21236;BME280;10775;42.678;26.324;2022-12-24T10:23:38;98557.72;;;10.35;97.43
21236;BME280;10775;42.678;26.324;2022-12-24T10:25:55;98557.84;;;10.31;91.95
21236;BME280;10775;42.678;26.324;2022-12-24T10:31:04;98565.75;;;9.81;95.51
21236;BME280;10775;42.678;26.324;2022-12-24T10:33:39;98560.84;;;9.63;93.02
21236;BME280;10775;42.678;26.324;2022-12-24T10:36:09;98553.09;;;10.05;98.54
21236;BME280;10775;42.678;26.324;2022-12-24T10:38:37;98543.31;;;10.58;97.02
21236;BME280;10775;42.678;26.324;2022-12-24T10:41:03;98535.28;;;10.65;91.03
21236;BME280;10775;42.678;26.324;2022-12-24T10:43:29;98538.09;;;10.95;92.82
21236;BME280;10775;42.678;26.324;2022-12-24T10:45:58;98537.72;;;11.12;87.52
21236;BME280;10775;42.678;26.324;2022-12-24T10:48:38;98540.31;;;10.76;83.51
21236;BME280;10775;42.678;26.324;2022-12-24T10:53:53;98535.72;;;10.02;88.91
21236;BME280;10775;42.678;26.324;2022-12-24T10:56:21;98532.94;;;10.11;91.96
21236;BME280;10775;42.678;26.324;2022-12-24T10:58:52;98532.94;;;10.13;86.12
21236;BME280;10775;42.678;26.324;2022-12-24T11:01:19;98539.16;;;10.06;88.07
21236;BME280;10775;42.678;26.324;2022-12-24T11:03:59;98536.09;;;10.27;90.58
21236;BME280;10775;42.678;26.324;2022-12-24T11:06:25;98529.44;;;10.56;89.65
21236;BME280;10775;42.678;26.324;2022-12-24T11:08:50;98521.63;;;10.53;88.08
21236;BME280;10775;42.678;26.324;2022-12-24T11:11:20;98518.94;;;10.57;83.10
21236;BME280;10775;42.678;26.324;2022-12-24T11:18:57;98516.53;;;10.85;85.11
21236;BME280;10775;42.678;26.324;2022-12-24T11:21:26;98509.91;;;11.06;82.49
21236;BME280;10775;42.678;26.324;2022-12-24T11:23:55;98515.16;;;11.06;83.50
21236;BME280;10775;42.678;26.324;2022-12-24T11:26:27;98511.94;;;10.95;83.96
21236;BME280;10775;42.678;26.324;2022-12-24T11:29:25;98510.56;;;10.80;83.26
21236;BME280;10775;42.678;26.324;2022-12-24T11:31:52;98514.03;;;10.43;84.20
21236;BME280;10775;42.678;26.324;2022-12-24T11:34:34;98512.84;;;10.57;84.39
21236;BME280;10775;42.678;26.324;2022-12-24T11:37:12;98513.34;;;10.34;82.55
21236;BME280;10775;42.678;26.324;2022-12-24T11:39:44;98514.81;;;10.04;82.94
21236;BME280;10775;42.678;26.324;2022-12-24T11:42:39;98511.03;;;10.18;83.63
21236;BME280;10775;42.678;26.324;2022-12-24T11:45:16;98506.34;;;10.36;85.73
21236;BME280;10775;42.678;26.324;2022-12-24T11:47:43;98509.50;;;10.50;84.08
21236;BME280;10775;42.678;26.324;2022-12-24T11:58:06;98505.59;;;10.70;83.51
21236;BME280;10775;42.678;26.324;2022-12-24T12:00:38;98510.75;;;10.73;82.51
21236;BME280;10775;42.678;26.324;2022-12-24T12:03:34;98504.00;;;10.62;82.25
21236;BME280;10775;42.678;26.324;2022-12-24T12:06:00;98506.53;;;10.65;82.99
21236;BME280;10775;42.678;26.324;2022-12-24T12:08:28;98503.97;;;10.64;82.29
21236;BME280;10775;42.678;26.324;2022-12-24T12:10:57;98498.59;;;10.70;81.86
21236;BME280;10775;42.678;26.324;2022-12-24T12:13:29;98507.13;;;10.78;82.07
21236;BME280;10775;42.678;26.324;2022-12-24T12:16:44;98502.72;;;10.80;81.56
21236;BME280;10775;42.678;26.324;2022-12-24T12:19:46;98515.00;;;10.77;80.87
21236;BME280;10775;42.678;26.324;2022-12-24T12:22:29;98512.41;;;10.75;81.57
21236;BME280;10775;42.678;26.324;2022-12-24T12:24:59;98515.19;;;10.69;81.05
21236;BME280;10775;42.678;26.324;2022-12-24T12:27:31;98521.53;;;10.59;81.36
21236;BME280;10775;42.678;26.324;2022-12-24T12:30:15;98515.91;;;10.37;81.75
21236;BME280;10775;42.678;26.324;2022-12-24T12:35:29;98516.44;;;10.09;82.99
21236;BME280;10775;42.678;26.324;2022-12-24T12:38:06;98511.50;;;9.95;83.43
21236;BME280;10775;42.678;26.324;2022-12-24T12:44:10;98507.97;;;9.98;83.67
21236;BME280;10775;42.678;26.324;2022-12-24T12:46:53;98501.81;;;10.00;84.36
21236;BME280;10775;42.678;26.324;2022-12-24T12:49:26;98504.34;;;10.05;83.62
21236;BME280;10775;42.678;26.324;2022-12-24T12:52:11;98506.22;;;9.98;83.95
21236;BME280;10775;42.678;26.324;2022-12-24T12:55:16;98513.09;;;10.02;83.80
21236;BME280;10775;42.678;26.324;2022-12-24T12:57:48;98517.13;;;10.17;83.74
21236;BME280;10775;42.678;26.324;2022-12-24T13:00:17;98509.13;;;10.28;83.36
21236;BME280;10775;42.678;26.324;2022-12-24T13:10:56;98511.88;;;10.20;81.97
21236;BME280;10775;42.678;26.324;2022-12-24T13:13:56;98507.59;;;10.15;81.92
21236;BME280;10775;42.678;26.324;2022-12-24T13:16:51;98506.66;;;10.19;82.31
21236;BME280;10775;42.678;26.324;2022-12-24T13:21:46;98492.81;;;10.15;81.99
21236;BME280;10775;42.678;26.324;2022-12-24T13:24:21;98487.59;;;10.15;81.91
21236;BME280;10775;42.678;26.324;2022-12-24T13:37:47;98488.22;;;9.85;83.19
21236;BME280;10775;42.678;26.324;2022-12-24T13:48:32;98511.28;;;9.61;83.77
21236;BME280;10775;42.678;26.324;2022-12-24T13:51:16;98503.50;;;9.60;84.10
21236;BME280;10775;42.678;26.324;2022-12-24T13:53:45;98506.94;;;9.62;84.35
21236;BME280;10775;42.678;26.324;2022-12-24T13:58:49;98508.63;;;9.64;84.38
21236;BME280;10775;42.678;26.324;2022-12-24T14:01:18;98512.19;;;9.58;84.54
21236;BME280;10775;42.678;26.324;2022-12-24T14:03:54;98515.72;;;9.56;85.06
21236;BME280;10775;42.678;26.324;2022-12-24T14:06:33;98521.00;;;9.54;84.54
21236;BME280;10775;42.678;26.324;2022-12-24T14:09:27;98521.84;;;9.55;85.59
21236;BME280;10775;42.678;26.324;2022-12-24T14:14:29;98515.84;;;9.50;85.86
21236;BME280;10775;42.678;26.324;2022-12-24T14:17:02;98514.28;;;9.40;86.14
21236;BME280;10775;42.678;26.324;2022-12-24T14:19:44;98511.81;;;9.32;85.68
21236;BME280;10775;42.678;26.324;2022-12-24T14:30:31;98528.53;;;9.22;88.76
21236;BME280;10775;42.678;26.324;2022-12-24T14:32:57;98528.66;;;9.12;88.79
21236;BME280;10775;42.678;26.324;2022-12-24T14:35:26;98538.16;;;9.17;89.72
21236;BME280;10775;42.678;26.324;2022-12-24T14:40:32;98532.03;;;9.21;89.86
21236;BME280;10775;42.678;26.324;2022-12-24T14:43:13;98542.41;;;9.24;88.57
21236;BME280;10775;42.678;26.324;2022-12-24T14:45:48;98545.94;;;9.21;88.47
21236;BME280;10775;42.678;26.324;2022-12-24T14:48:41;98542.53;;;9.14;88.55
21236;BME280;10775;42.678;26.324;2022-12-24T14:53:54;98545.38;;;9.01;89.57
21236;BME280;10775;42.678;26.324;2022-12-24T14:56:27;98535.81;;;9.00;90.32
21236;BME280;10775;42.678;26.324;2022-12-24T14:58:52;98544.59;;;8.94;91.10
21236;BME280;10775;42.678;26.324;2022-12-24T15:01:21;98548.13;;;8.93;90.06
21236;BME280;10775;42.678;26.324;2022-12-24T15:06:40;98544.53;;;9.00;91.92
21236;BME280;10775;42.678;26.324;2022-12-24T15:09:26;98541.16;;;8.92;91.71
21236;BME280;10775;42.678;26.324;2022-12-24T15:11:56;98539.56;;;8.85;89.45